Time;durP1;ratioP1;P1;durP2;ratioP2;P2;SDS_P1;SDS_P2;PMS_P1;PMS_P2;Temp;Humidity;BMP_temperature;BMP_pressure;BME280_temperature;BME280_humidity;BME280_pressure;Samples;Min_cycle;Max_cycle;Signal;HPM_P1;HPM_P2
2021/11/06 00:00:05;;;;;;;15.40;9.70;;;6.10;82.60;;;;;;5019501;28;20114;-69
2021/11/06 00:02:31;;;;;;;12.82;8.98;;;6.10;82.60;;;;;;5017083;28;20030;-68
2021/11/06 00:04:56;;;;;;;13.90;9.57;;;6.20;83.30;;;;;;5017022;28;20451;-68
2021/11/06 00:07:22;;;;;;;12.18;8.60;;;6.10;82.40;;;;;;5017359;28;20030;-68
2021/11/06 00:09:48;;;;;;;11.07;8.23;;;6.20;82.30;;;;;;5016369;28;20161;-70
2021/11/06 00:12:13;;;;;;;12.02;8.65;;;6.20;82.40;;;;;;5011497;28;20354;-68
2021/11/06 00:14:39;;;;;;;13.07;8.73;;;6.20;82.40;;;;;;5012652;28;20545;-68
2021/11/06 00:17:05;;;;;;;12.32;9.45;;;6.20;82.40;;;;;;5009783;28;20088;-67
2021/11/06 00:19:30;;;;;;;12.40;8.35;;;6.20;82.30;;;;;;5007742;28;20022;-68
2021/11/06 00:21:56;;;;;;;11.45;8.23;;;6.20;82.40;;;;;;5008146;28;20029;-68
2021/11/06 00:24:22;;;;;;;12.57;8.80;;;6.30;82.30;;;;;;5007577;28;20033;-68
2021/11/06 00:26:51;;;;;;;12.30;8.63;;;6.30;82.30;;;;;;5007569;28;20485;-68
2021/11/06 00:29:17;;;;;;;12.25;8.55;;;6.30;82.30;;;;;;5009994;28;20034;-68
2021/11/06 00:31:43;;;;;;;13.98;8.15;;;6.30;82.30;;;;;;5008988;28;20064;-68
2021/11/06 00:34:09;;;;;;;11.25;8.13;;;6.30;82.30;;;;;;5006268;28;20619;-68
2021/11/06 00:36:35;;;;;;;13.60;8.40;;;6.30;82.30;;;;;;5004646;28;20088;-67
2021/11/06 00:39:02;;;;;;;9.48;7.63;;;6.30;82.30;;;;;;5013470;28;20036;-67
2021/11/06 00:41:28;;;;;;;10.40;7.97;;;6.30;82.20;;;;;;5012821;28;20116;-68
2021/11/06 00:43:53;;;;;;;9.75;7.60;;;6.30;82.10;;;;;;5010598;28;20060;-68
2021/11/06 00:46:19;;;;;;;11.50;7.95;;;6.30;82.00;;;;;;5007895;28;20123;-68
2021/11/06 00:48:45;;;;;;;11.57;7.70;;;6.30;82.00;;;;;;5011022;28;20053;-68
2021/11/06 00:51:10;;;;;;;10.65;7.80;;;6.30;82.00;;;;;;5013393;28;20034;-68
2021/11/06 00:53:36;;;;;;;11.32;8.00;;;6.30;82.00;;;;;;5007476;28;20045;-67
2021/11/06 00:56:02;;;;;;;10.52;7.50;;;6.30;81.80;;;;;;5012379;28;20651;-68
2021/11/06 00:58:27;;;;;;;12.82;8.05;;;6.30;81.70;;;;;;5014247;28;20061;-68
2021/11/06 01:00:53;;;;;;;15.50;9.50;;;6.30;81.70;;;;;;5008632;28;20091;-67
2021/11/06 01:03:19;;;;;;;15.98;9.35;;;6.30;81.90;;;;;;5012515;28;20034;-68
2021/11/06 01:05:45;;;;;;;23.88;13.15;;;6.30;82.10;;;;;;5007431;28;20041;-68
2021/11/06 01:08:11;;;;;;;21.90;12.82;;;6.30;82.10;;;;;;5010315;28;20041;-68
2021/11/06 01:10:36;;;;;;;22.13;12.10;;;6.30;82.20;;;;;;5007603;28;20046;-67
2021/11/06 01:13:02;;;;;;;16.58;10.32;;;6.30;82.30;;;;;;5005645;28;20030;-68
2021/11/06 01:15:28;;;;;;;14.68;9.52;;;6.30;82.10;;;;;;5006266;28;20026;-68
2021/11/06 01:17:54;;;;;;;15.43;9.75;;;6.40;82.10;;;;;;5005650;28;20034;-68
2021/11/06 01:20:20;;;;;;;14.13;9.20;;;6.30;82.00;;;;;;5007117;28;20037;-67
2021/11/06 01:22:45;;;;;;;14.15;9.18;;;6.30;82.00;;;;;;5006485;28;20045;-67
2021/11/06 01:25:12;;;;;;;20.45;11.25;;;6.40;82.10;;;;;;5009368;28;20546;-68
2021/11/06 01:27:38;;;;;;;22.70;12.82;;;6.40;82.10;;;;;;5005206;28;20063;-68
2021/11/06 01:30:06;;;;;;;21.98;12.18;;;6.40;82.00;;;;;;5005737;28;20694;-67
2021/11/06 01:32:31;;;;;;;27.63;13.25;;;6.40;82.00;;;;;;5004212;28;20770;-68
2021/11/06 01:34:57;;;;;;;19.70;11.60;;;6.40;81.90;;;;;;5006367;28;20033;-68
2021/11/06 01:37:23;;;;;;;21.90;11.77;;;6.40;81.80;;;;;;5005982;28;20061;-68
2021/11/06 01:39:48;;;;;;;16.13;9.85;;;6.40;81.80;;;;;;5005298;28;20087;-68
2021/11/06 01:42:14;;;;;;;14.60;9.07;;;6.40;82.00;;;;;;5007912;28;20130;-68
2021/11/06 01:44:40;;;;;;;15.35;8.60;;;6.40;82.10;;;;;;5009669;28;20543;-68
2021/11/06 01:47:09;;;;;;;16.30;9.43;;;6.40;82.00;;;;;;5004897;28;20045;-68
2021/11/06 01:49:35;;;;;;;10.65;7.80;;;6.40;82.10;;;;;;5006242;28;20570;-67
2021/11/06 01:52:02;;;;;;;11.18;7.47;;;6.40;82.00;;;;;;5007666;28;20091;-68
2021/11/06 01:54:27;;;;;;;12.27;7.50;;;6.40;82.00;;;;;;5009354;28;20557;-68
2021/11/06 01:56:54;;;;;;;10.30;7.05;;;6.40;82.10;;;;;;5011524;28;20038;-68
2021/11/06 01:59:21;;;;;;;10.85;6.95;;;6.30;82.00;;;;;;5012654;28;20030;-68
2021/11/06 02:01:46;;;;;;;10.73;7.35;;;6.30;82.00;;;;;;5007878;28;20041;-68
2021/11/06 02:04:12;;;;;;;9.85;6.85;;;6.30;82.10;;;;;;5015222;28;20527;-68
2021/11/06 02:06:38;;;;;;;8.38;7.10;;;6.30;82.00;;;;;;5012905;28;20029;-68
2021/11/06 02:09:04;;;;;;;12.32;7.13;;;6.30;82.10;;;;;;5014828;28;20034;-68
2021/11/06 02:11:30;;;;;;;10.25;6.97;;;6.30;82.30;;;;;;5010181;28;20065;-67
2021/11/06 02:13:56;;;;;;;10.55;7.03;;;6.30;82.60;;;;;;5009607;28;20400;-68
2021/11/06 02:16:21;;;;;;;11.15;7.68;;;6.20;82.70;;;;;;5007048;28;20078;-68
2021/11/06 02:18:50;;;;;;;10.02;7.43;;;6.20;82.80;;;;;;5008767;28;20061;-68
2021/11/06 02:21:16;;;;;;;12.98;7.78;;;6.30;83.00;;;;;;5004370;28;20539;-69
2021/11/06 02:23:43;;;;;;;10.63;7.07;;;6.30;82.80;;;;;;5006463;28;20048;-68
2021/11/06 02:26:11;;;;;;;10.63;7.38;;;6.30;82.80;;;;;;5014181;28;20056;-68
2021/11/06 02:28:38;;;;;;;10.00;7.63;;;6.30;82.70;;;;;;5009545;28;20036;-67
2021/11/06 02:31:04;;;;;;;11.77;7.70;;;6.30;82.70;;;;;;5005426;28;20037;-68
2021/11/06 02:33:30;;;;;;;9.63;7.32;;;6.40;82.80;;;;;;5008191;28;20037;-68
2021/11/06 02:35:58;;;;;;;9.18;7.13;;;6.40;82.80;;;;;;5007427;28;20034;-68
2021/11/06 02:38:24;;;;;;;10.82;7.18;;;6.40;82.60;;;;;;5009234;28;20036;-67
2021/11/06 02:40:49;;;;;;;10.63;7.40;;;6.40;82.70;;;;;;5009003;28;20597;-68
2021/11/06 02:43:15;;;;;;;12.73;8.05;;;6.40;82.50;;;;;;5011367;28;20034;-68
2021/11/06 02:45:41;;;;;;;11.38;7.78;;;6.40;82.40;;;;;;5008138;28;20029;-67
2021/11/06 02:48:06;;;;;;;12.00;7.85;;;6.40;82.40;;;;;;5011589;28;20091;-68
2021/11/06 02:50:33;;;;;;;14.15;8.05;;;6.40;82.30;;;;;;5008532;28;20060;-67
2021/11/06 02:52:59;;;;;;;12.13;8.27;;;6.40;82.30;;;;;;5004794;28;20037;-68
2021/11/06 02:55:25;;;;;;;14.32;8.75;;;6.40;82.00;;;;;;5009337;28;20404;-67
2021/11/06 02:57:51;;;;;;;17.67;8.68;;;6.40;82.00;;;;;;5010764;28;20046;-68
2021/11/06 03:00:18;;;;;;;31.10;8.98;;;6.40;82.00;;;;;;5004842;28;20042;-68
2021/11/06 03:02:44;;;;;;;21.52;9.20;;;6.40;82.00;;;;;;5005687;28;20034;-68
2021/11/06 03:05:12;;;;;;;16.85;9.10;;;6.40;82.00;;;;;;5005254;28;20042;-68
2021/11/06 03:07:38;;;;;;;36.80;8.93;;;6.40;82.00;;;;;;5004973;28;20124;-68
2021/11/06 03:10:07;;;;;;;15.73;8.30;;;6.40;82.10;;;;;;5004011;28;20673;-65
2021/11/06 03:12:33;;;;;;;17.27;8.50;;;6.30;82.90;;;;;;5002418;28;20060;-66
2021/11/06 03:14:59;;;;;;;19.05;8.02;;;6.30;82.20;;;;;;5009756;28;20036;-67
2021/11/06 03:17:25;;;;;;;21.35;7.40;;;6.30;82.10;;;;;;5017604;28;20647;-67
2021/11/06 03:19:51;;;;;;;15.50;7.32;;;6.30;82.10;;;;;;5015612;28;20034;-67
2021/11/06 03:22:17;;;;;;;26.58;7.00;;;6.30;82.10;;;;;;5008159;28;20038;-67
2021/11/06 03:24:43;;;;;;;38.13;7.40;;;6.20;82.10;;;;;;5008640;28;20076;-67
2021/11/06 03:27:08;;;;;;;30.65;8.30;;;6.20;82.00;;;;;;5014763;28;20030;-67
2021/11/06 03:29:34;;;;;;;38.88;7.38;;;6.20;82.00;;;;;;5011227;28;20505;-68
2021/11/06 03:32:00;;;;;;;60.42;7.70;;;6.20;82.10;;;;;;5007937;28;20128;-68
2021/11/06 03:34:26;;;;;;;47.00;6.65;;;6.10;82.00;;;;;;5008212;28;20040;-68
2021/11/06 03:36:52;;;;;;;70.53;6.93;;;6.10;82.10;;;;;;5005154;28;20855;-67
2021/11/06 03:39:18;;;;;;;26.73;6.65;;;6.10;82.10;;;;;;5008205;28;20065;-67
2021/11/06 03:41:44;;;;;;;17.98;6.68;;;6.00;82.10;;;;;;5006515;28;20906;-68
2021/11/06 03:44:10;;;;;;;11.02;6.47;;;6.00;82.10;;;;;;5010174;28;20170;-68
2021/11/06 03:46:36;;;;;;;62.47;6.70;;;6.00;82.10;;;;;;5013294;28;20740;-68
2021/11/06 03:49:03;;;;;;;42.92;5.97;;;6.00;82.00;;;;;;5016382;28;20045;-67
2021/11/06 03:51:29;;;;;;;49.70;7.32;;;6.00;81.60;;;;;;5011525;28;20400;-67
2021/11/06 03:53:55;;;;;;;27.33;6.22;;;5.90;81.40;;;;;;5010621;28;20045;-67
2021/11/06 03:56:21;;;;;;;16.35;6.10;;;5.90;81.30;;;;;;5010086;28;20041;-68
2021/11/06 03:58:48;;;;;;;27.13;5.95;;;5.80;81.40;;;;;;5011403;28;20521;-67
2021/11/06 04:01:13;;;;;;;23.67;6.68;;;5.80;81.80;;;;;;5010720;28;20038;-68
2021/11/06 04:03:39;;;;;;;41.85;6.90;;;5.80;82.00;;;;;;5017309;28;20041;-67
2021/11/06 04:06:05;;;;;;;24.80;7.28;;;5.70;82.10;;;;;;5009041;28;20478;-67
2021/11/06 04:08:31;;;;;;;8.20;6.15;;;5.70;82.30;;;;;;5011183;28;20043;-67
2021/11/06 04:10:56;;;;;;;29.58;6.93;;;5.70;82.30;;;;;;5007027;28;21085;-67
2021/11/06 04:13:22;;;;;;;29.02;6.97;;;5.70;82.30;;;;;;5009341;28;20117;-67
2021/11/06 04:15:48;;;;;;;48.22;6.45;;;5.70;82.30;;;;;;5007561;28;20155;-67
2021/11/06 04:18:14;;;;;;;39.58;5.95;;;5.70;82.20;;;;;;5014044;28;20045;-67
2021/11/06 04:20:40;;;;;;;53.20;6.75;;;5.70;81.80;;;;;;5010884;28;20037;-67
2021/11/06 04:23:05;;;;;;;46.53;6.45;;;5.60;81.40;;;;;;5011685;28;20040;-67
2021/11/06 04:25:31;;;;;;;55.05;6.53;;;5.60;81.40;;;;;;5006609;28;20176;-68
2021/11/06 04:27:57;;;;;;;47.72;6.28;;;5.50;81.40;;;;;;5008012;28;20030;-67
2021/11/06 04:30:23;;;;;;;54.97;5.88;;;5.40;81.40;;;;;;5009726;28;20092;-67
2021/11/06 04:32:49;;;;;;;38.75;5.22;;;5.30;81.40;;;;;;5006230;28;20052;-67
2021/11/06 04:35:14;;;;;;;65.85;6.50;;;5.30;81.60;;;;;;5004889;28;20500;-67
2021/11/06 04:37:40;;;;;;;6.22;5.22;;;5.20;81.80;;;;;;5011569;28;20794;-67
2021/11/06 04:40:08;;;;;;;30.52;5.50;;;5.20;82.10;;;;;;5009947;28;20030;-67
2021/11/06 04:42:34;;;;;;;16.08;5.53;;;5.10;82.50;;;;;;5008289;28;20084;-67
2021/11/06 04:45:00;;;;;;;33.67;6.70;;;5.10;83.60;;;;;;5012901;28;20503;-68
2021/11/06 04:47:25;;;;;;;33.60;6.40;;;5.10;83.00;;;;;;5009932;28;20069;-67
2021/11/06 04:49:51;;;;;;;36.63;6.28;;;5.10;83.20;;;;;;5013698;28;20136;-67
2021/11/06 04:52:17;;;;;;;61.08;7.05;;;5.20;83.40;;;;;;5006820;28;20065;-67
2021/11/06 04:54:43;;;;;;;53.10;7.05;;;5.20;83.30;;;;;;5006334;28;20038;-68
2021/11/06 04:57:08;;;;;;;55.20;6.90;;;5.20;83.20;;;;;;5004067;28;20587;-67
2021/11/06 04:59:34;;;;;;;58.78;8.20;;;5.20;83.00;;;;;;5010272;28;20038;-68
2021/11/06 05:02:01;;;;;;;45.95;6.78;;;5.10;83.80;;;;;;5012895;28;20516;-68
2021/11/06 05:04:27;;;;;;;32.50;7.15;;;5.10;83.20;;;;;;5009891;28;20186;-68
2021/11/06 05:06:53;;;;;;;57.60;8.95;;;5.10;83.50;;;;;;5006931;28;20496;-67
2021/11/06 05:09:19;;;;;;;54.83;8.00;;;5.10;83.80;;;;;;5014089;28;20037;-68
2021/11/06 05:11:45;;;;;;;45.58;6.70;;;5.10;83.90;;;;;;5002530;28;20599;-68
2021/11/06 05:14:10;;;;;;;74.47;7.93;;;5.10;83.90;;;;;;5010139;28;20416;-66
2021/11/06 05:16:36;;;;;;;77.95;8.45;;;5.10;83.80;;;;;;5008588;28;20096;-68
2021/11/06 05:19:02;;;;;;;68.88;7.68;;;5.00;83.80;;;;;;5005581;28;20065;-68
2021/11/06 05:21:35;;;;;;;66.40;7.18;;;5.00;83.90;;;;;;5009421;28;20034;-67
2021/11/06 05:24:02;;;;;;;59.63;7.18;;;5.00;84.00;;;;;;5010221;28;20049;-68
2021/11/06 05:26:28;;;;;;;66.93;7.93;;;5.00;84.10;;;;;;5006292;28;20029;-68
2021/11/06 05:28:53;;;;;;;19.50;6.93;;;5.00;84.30;;;;;;5009369;28;20042;-67
2021/11/06 05:31:19;;;;;;;89.65;7.45;;;5.00;84.60;;;;;;5011154;28;20083;-67
2021/11/06 05:33:45;;;;;;;30.48;7.25;;;5.00;84.70;;;;;;5013350;28;20037;-67
2021/11/06 05:36:10;;;;;;;60.08;9.38;;;5.00;84.80;;;;;;5005959;28;20072;-68
2021/11/06 05:38:36;;;;;;;71.53;8.25;;;5.10;85.00;;;;;;5010383;28;20386;-68
2021/11/06 05:41:02;;;;;;;149.63;10.27;;;5.10;85.10;;;;;;5008385;28;20121;-68
2021/11/06 05:43:27;;;;;;;53.80;7.93;;;5.20;85.10;;;;;;5008323;28;20034;-68
2021/11/06 05:45:53;;;;;;;96.95;8.00;;;5.20;84.90;;;;;;5008966;28;20038;-67
2021/11/06 05:48:19;;;;;;;73.30;8.02;;;5.20;84.80;;;;;;5011168;28;20031;-67
2021/11/06 05:50:44;;;;;;;28.13;6.55;;;5.20;84.80;;;;;;5010741;28;20045;-68
2021/11/06 05:53:10;;;;;;;18.75;7.50;;;5.20;84.80;;;;;;5010731;28;20038;-68
2021/11/06 05:55:36;;;;;;;33.25;7.70;;;5.30;84.90;;;;;;5007363;28;20508;-67
2021/11/06 05:58:02;;;;;;;70.53;8.70;;;5.30;84.80;;;;;;5008762;28;20044;-68
2021/11/06 06:00:27;;;;;;;16.65;7.13;;;5.30;84.70;;;;;;5009691;28;20030;-68
2021/11/06 06:02:53;;;;;;;68.85;8.15;;;5.20;84.70;;;;;;5010665;28;20040;-68
2021/11/06 06:05:19;;;;;;;93.68;8.98;;;5.30;84.90;;;;;;5009237;28;20117;-67
2021/11/06 06:07:45;;;;;;;19.73;7.75;;;5.30;84.80;;;;;;5004331;28;20874;-68
2021/11/06 06:10:12;;;;;;;28.08;8.35;;;5.30;84.70;;;;;;5010275;28;20026;-68
2021/11/06 06:12:39;;;;;;;169.80;10.57;;;5.30;84.70;;;;;;5002716;28;20030;-67
2021/11/06 06:15:06;;;;;;;114.30;10.18;;;5.40;84.80;;;;;;5012158;28;20759;-67
2021/11/06 06:17:31;;;;;;;236.70;14.13;;;5.40;84.70;;;;;;5007799;28;20042;-68
2021/11/06 06:19:57;;;;;;;32.65;8.80;;;5.40;84.50;;;;;;5005154;28;20029;-68
2021/11/06 06:22:23;;;;;;;23.83;7.88;;;5.30;84.30;;;;;;5008335;28;20030;-68
2021/11/06 06:24:50;;;;;;;32.38;8.82;;;5.40;84.50;;;;;;5007154;28;20714;-68
2021/11/06 06:27:17;;;;;;;232.07;13.15;;;5.40;84.60;;;;;;5005518;28;20030;-68
2021/11/06 06:29:42;;;;;;;109.65;10.25;;;5.40;84.60;;;;;;4996310;28;20034;-68
2021/11/06 06:32:08;;;;;;;191.48;12.70;;;5.40;84.50;;;;;;5009541;28;20049;-68
2021/11/06 06:34:33;;;;;;;64.57;10.77;;;5.40;84.40;;;;;;5012889;28;20025;-69
2021/11/06 06:36:59;;;;;;;129.02;12.40;;;5.40;84.40;;;;;;5012562;28;20033;-68
2021/11/06 06:39:25;;;;;;;42.50;10.05;;;5.40;84.50;;;;;;5009015;28;20475;-68
2021/11/06 06:41:50;;;;;;;61.17;11.38;;;5.40;84.60;;;;;;5008517;28;20128;-68
2021/11/06 06:44:16;;;;;;;159.93;11.93;;;5.40;84.70;;;;;;5005989;28;20115;-67
2021/11/06 06:46:42;;;;;;;235.68;14.68;;;5.40;84.70;;;;;;5009707;28;20443;-67
2021/11/06 06:49:08;;;;;;;158.27;12.23;;;5.50;84.80;;;;;;5007116;28;20565;-68
2021/11/06 06:51:34;;;;;;;92.95;11.38;;;5.50;84.60;;;;;;5006869;28;20038;-68
2021/11/06 06:54:00;;;;;;;62.17;10.48;;;5.50;84.40;;;;;;5007938;28;20034;-68
2021/11/06 06:56:25;;;;;;;46.60;10.80;;;5.40;84.40;;;;;;5006884;28;20109;-68
2021/11/06 06:58:51;;;;;;;65.03;10.55;;;5.40;84.60;;;;;;5003653;28;20052;-68
2021/11/06 07:01:16;;;;;;;55.50;11.48;;;5.40;84.80;;;;;;5000758;28;20115;-67
2021/11/06 07:03:42;;;;;;;54.15;11.50;;;5.40;85.80;;;;;;5001656;28;20619;-67
2021/11/06 07:06:08;;;;;;;56.47;11.90;;;5.40;85.00;;;;;;5006824;28;20118;-68
2021/11/06 07:08:33;;;;;;;37.00;11.32;;;5.50;85.10;;;;;;5009949;28;20045;-68
2021/11/06 07:10:59;;;;;;;36.53;10.82;;;5.50;85.20;;;;;;5004098;28;20052;-68
2021/11/06 07:13:27;;;;;;;23.60;11.90;;;5.50;85.30;;;;;;5005452;28;20033;-67
2021/11/06 07:15:52;;;;;;;61.63;12.10;;;5.50;85.40;;;;;;5006617;28;20034;-68
2021/11/06 07:18:19;;;;;;;23.05;11.13;;;5.60;85.50;;;;;;5005573;28;20089;-68
2021/11/06 07:20:44;;;;;;;30.63;11.25;;;5.60;85.60;;;;;;5009417;28;20111;-68
2021/11/06 07:23:11;;;;;;;80.00;12.20;;;5.60;85.50;;;;;;5005029;28;20061;-68
2021/11/06 07:25:37;;;;;;;31.73;10.38;;;5.70;85.60;;;;;;5004510;28;20049;-67
2021/11/06 07:28:03;;;;;;;35.95;11.43;;;5.70;85.40;;;;;;5004285;28;20044;-67
2021/11/06 07:30:29;;;;;;;32.72;11.13;;;5.80;85.40;;;;;;5005503;28;20501;-68
2021/11/06 07:32:55;;;;;;;24.00;11.68;;;5.80;85.30;;;;;;5005562;28;20038;-67
2021/11/06 07:35:20;;;;;;;18.80;10.70;;;5.80;85.30;;;;;;5007091;28;20510;-67
2021/11/06 07:37:46;;;;;;;145.75;13.80;;;5.80;85.40;;;;;;5003164;28;20030;-67
2021/11/06 07:40:12;;;;;;;46.10;11.98;;;5.90;85.60;;;;;;4996321;28;20430;-67
2021/11/06 07:42:41;;;;;;;117.05;14.20;;;5.90;85.40;;;;;;4991853;28;20080;-68
2021/11/06 07:45:08;;;;;;;216.05;16.35;;;5.90;85.40;;;;;;4997689;28;20275;-65
2021/11/06 07:47:34;;;;;;;114.75;15.20;;;5.90;85.40;;;;;;4999294;28;20117;-67
2021/11/06 07:49:59;;;;;;;58.67;14.85;;;6.00;85.30;;;;;;5008411;28;20117;-67
2021/11/06 07:52:25;;;;;;;42.47;15.05;;;5.90;85.30;;;;;;5003040;28;20073;-68
2021/11/06 07:54:51;;;;;;;108.50;15.02;;;5.90;85.40;;;;;;5004460;28;20069;-68
2021/11/06 07:57:17;;;;;;;110.63;15.57;;;6.00;85.70;;;;;;4998415;28;20537;-67
2021/11/06 07:59:43;;;;;;;122.03;17.08;;;6.00;85.60;;;;;;5004818;28;20034;-67
2021/11/06 08:02:09;;;;;;;201.25;18.33;;;6.00;85.60;;;;;;5004529;28;20045;-67
2021/11/06 08:04:34;;;;;;;45.42;14.35;;;6.00;85.60;;;;;;5011149;28;20040;-68
2021/11/06 08:07:00;;;;;;;38.08;14.40;;;6.00;85.50;;;;;;5011917;28;20046;-67
2021/11/06 08:09:26;;;;;;;29.08;14.23;;;6.00;85.80;;;;;;5017295;28;20534;-68
2021/11/06 08:11:51;;;;;;;32.15;13.57;;;6.00;85.80;;;;;;5010705;28;20061;-66
2021/11/06 08:14:17;;;;;;;45.83;14.88;;;6.00;86.00;;;;;;5017621;28;20034;-68
2021/11/06 08:16:43;;;;;;;91.40;15.13;;;6.10;86.00;;;;;;5017259;28;20528;-67
2021/11/06 08:19:10;;;;;;;94.32;16.23;;;6.20;86.10;;;;;;5016556;28;20074;-68
2021/11/06 08:21:36;;;;;;;71.68;14.63;;;6.20;86.00;;;;;;5008815;28;20049;-68
2021/11/06 08:24:02;;;;;;;81.25;15.05;;;6.20;85.70;;;;;;5006625;28;20079;-67
2021/11/06 08:26:28;;;;;;;52.78;14.88;;;6.20;85.60;;;;;;5005934;28;20045;-68
2021/11/06 08:28:54;;;;;;;79.70;14.40;;;6.30;85.60;;;;;;5009146;28;20088;-67
2021/11/06 08:31:20;;;;;;;66.38;18.52;;;6.30;85.60;;;;;;5003745;28;20560;-68
2021/11/06 08:33:48;;;;;;;65.18;15.40;;;6.30;85.70;;;;;;4999523;28;20053;-67
2021/11/06 08:36:14;;;;;;;32.78;14.05;;;6.30;85.80;;;;;;5016550;28;20034;-68
2021/11/06 08:38:39;;;;;;;44.25;13.98;;;6.30;85.90;;;;;;5014480;28;20695;-68
2021/11/06 08:41:06;;;;;;;80.43;14.40;;;6.30;86.00;;;;;;5013140;28;20030;-67
2021/11/06 08:43:32;;;;;;;57.38;14.60;;;6.30;85.80;;;;;;5013713;28;20442;-67
2021/11/06 08:45:58;;;;;;;89.97;15.68;;;6.30;85.70;;;;;;5015149;28;20033;-67
2021/11/06 08:48:23;;;;;;;68.97;14.50;;;6.40;85.70;;;;;;5013599;28;20180;-68
2021/11/06 08:50:49;;;;;;;77.95;14.70;;;6.40;85.60;;;;;;5011038;28;20051;-68
2021/11/06 08:53:15;;;;;;;73.70;15.77;;;6.40;85.60;;;;;;5015536;28;20121;-68
2021/11/06 08:55:41;;;;;;;66.00;14.50;;;6.40;85.50;;;;;;5011456;28;20404;-68
2021/11/06 08:58:06;;;;;;;32.20;13.50;;;6.30;85.40;;;;;;5012390;28;20625;-68
2021/11/06 09:00:44;;;;;;;69.25;15.48;;;6.30;85.60;;;;;;5012303;28;20525;-67
2021/11/06 09:03:13;;;;;;;45.40;13.63;;;6.30;86.00;;;;;;5016331;28;20029;-68
2021/11/06 09:05:39;;;;;;;56.13;14.60;;;6.30;85.90;;;;;;5012597;28;20467;-67
2021/11/06 09:08:06;;;;;;;46.47;15.07;;;6.40;86.00;;;;;;5014705;28;20033;-68
2021/11/06 09:10:32;;;;;;;99.97;16.02;;;6.40;86.10;;;;;;5005530;28;20132;-68
2021/11/06 09:12:58;;;;;;;60.58;14.18;;;6.40;86.10;;;;;;5010829;28;20030;-67
2021/11/06 09:15:24;;;;;;;36.83;14.40;;;6.50;86.10;;;;;;5008013;28;20797;-66
2021/11/06 09:17:51;;;;;;;71.25;15.93;;;6.50;86.20;;;;;;5008799;28;20057;-68
2021/11/06 09:20:17;;;;;;;131.93;20.48;;;6.50;86.30;;;;;;5011177;28;20555;-68
2021/11/06 09:22:43;;;;;;;76.20;15.48;;;6.60;86.30;;;;;;5010302;28;20037;-68
2021/11/06 09:25:10;;;;;;;98.45;16.45;;;6.60;85.90;;;;;;5013745;28;20125;-68
2021/11/06 09:27:36;;;;;;;53.65;15.93;;;6.60;85.80;;;;;;5011019;28;20043;-68
2021/11/06 09:30:05;;;;;;;43.38;15.10;;;6.60;85.80;;;;;;5014744;28;20033;-66
2021/11/06 09:32:31;;;;;;;48.00;16.20;;;6.60;85.90;;;;;;5008638;28;20741;-68
2021/11/06 09:34:57;;;;;;;33.58;13.27;;;6.70;86.00;;;;;;5013306;28;20030;-67
2021/11/06 09:37:22;;;;;;;39.97;14.25;;;6.70;86.00;;;;;;5014369;28;20064;-68
2021/11/06 09:39:48;;;;;;;33.03;15.77;;;6.70;86.00;;;;;;5012964;28;20030;-68
2021/11/06 09:42:14;;;;;;;34.88;15.55;;;6.80;86.00;;;;;;5010919;28;20057;-68
2021/11/06 09:44:40;;;;;;;52.55;16.38;;;6.80;86.00;;;;;;5010882;28;20922;-68
2021/11/06 09:47:12;;;;;;;37.88;16.17;;;6.90;86.00;;;;;;5011844;28;20068;-68
2021/11/06 09:49:41;;;;;;;31.90;15.00;;;6.90;85.90;;;;;;5011660;28;20037;-68
2021/11/06 09:52:08;;;;;;;39.97;16.80;;;6.90;85.70;;;;;;5000494;28;20042;-69
2021/11/06 09:54:34;;;;;;;33.78;16.98;;;6.90;85.70;;;;;;5014393;28;20030;-67
2021/11/06 09:57:00;;;;;;;33.50;16.02;;;6.90;85.60;;;;;;5011318;28;20033;-67
2021/11/06 09:59:27;;;;;;;32.85;15.35;;;7.00;85.90;;;;;;5014402;28;20501;-68
2021/11/06 10:01:53;;;;;;;35.33;16.20;;;7.00;86.00;;;;;;5017686;28;20103;-68
2021/11/06 10:04:18;;;;;;;46.15;16.60;;;7.00;86.00;;;;;;5018537;28;20509;-67
2021/11/06 10:06:45;;;;;;;29.83;15.68;;;7.10;86.20;;;;;;5006613;28;20394;-68
2021/11/06 10:09:12;;;;;;;35.33;15.52;;;7.10;86.10;;;;;;5013992;28;20239;-68
2021/11/06 10:11:42;;;;;;;31.70;16.35;;;7.10;86.10;;;;;;5006447;28;20053;-68
2021/11/06 10:14:10;;;;;;;41.17;17.40;;;7.20;86.00;;;;;;5016245;28;20033;-67
2021/11/06 10:16:40;;;;;;;29.92;15.25;;;7.30;86.10;;;;;;5014617;28;20041;-67
2021/11/06 10:19:10;;;;;;;32.30;15.52;;;7.30;86.10;;;;;;5015626;28;20116;-68
2021/11/06 10:21:39;;;;;;;36.50;17.77;;;7.30;85.80;;;;;;5016100;28;20041;-68
2021/11/06 10:24:05;;;;;;;30.88;16.42;;;7.30;85.50;;;;;;5014828;28;20559;-68
2021/11/06 10:26:32;;;;;;;33.67;16.50;;;7.40;85.60;;;;;;5014687;28;20137;-68
2021/11/06 10:29:14;;;;;;;37.70;19.58;;;7.40;85.60;;;;;;5014480;28;20029;-68
2021/11/06 10:31:55;;;;;;;40.90;17.73;;;7.40;85.50;;;;;;5013515;28;20088;-68
2021/11/06 10:34:25;;;;;;;41.75;18.67;;;7.50;85.30;;;;;;5011076;28;20030;-67
2021/11/06 10:37:00;;;;;;;31.05;16.38;;;7.50;85.20;;;;;;5010879;28;20516;-69
2021/11/06 10:39:26;;;;;;;;;;;7.50;85.00;;;;;;5010497;28;20077;-68
2021/11/06 10:41:52;;;;;;;30.98;15.23;;;7.50;85.00;;;;;;5016628;28;19985;-68
2021/11/06 10:44:20;;;;;;;33.53;16.48;;;7.50;84.90;;;;;;5016912;28;20497;-69
2021/11/06 10:46:53;;;;;;;33.33;16.92;;;7.50;85.10;;;;;;4999342;28;20045;-68
2021/11/06 10:49:36;;;;;;;41.00;17.50;;;7.50;85.10;;;;;;5010419;28;20893;-68
2021/11/06 10:52:05;;;;;;;36.13;16.95;;;7.50;84.80;;;;;;5013170;28;20052;-68
2021/11/06 10:54:31;;;;;;;37.50;17.60;;;7.50;84.90;;;;;;5005291;28;20607;-67
2021/11/06 10:56:58;;;;;;;33.67;17.67;;;7.50;85.00;;;;;;5001930;28;20042;-67
2021/11/06 10:59:25;;;;;;;34.38;17.20;;;7.50;86.00;;;;;;5002200;28;20046;-67
2021/11/06 11:01:53;;;;;;;31.70;16.00;;;7.60;85.30;;;;;;5005618;28;20432;-68
2021/11/06 11:04:20;;;;;;;31.33;16.05;;;7.60;85.30;;;;;;5000297;28;20048;-68
2021/11/06 11:06:49;;;;;;;30.08;15.35;;;7.60;85.20;;;;;;5004426;28;20095;-68
2021/11/06 11:09:19;;;;;;;27.95;14.52;;;7.60;85.00;;;;;;5010842;28;20034;-68
2021/11/06 11:11:47;;;;;;;33.45;16.08;;;7.70;85.20;;;;;;5007325;28;20041;-67
2021/11/06 11:14:27;;;;;;;31.63;16.17;;;7.70;85.00;;;;;;5013580;28;20056;-68
2021/11/06 11:16:58;;;;;;;29.27;15.27;;;7.70;84.80;;;;;;5013096;28;20061;-67
2021/11/06 11:19:38;;;;;;;29.20;15.70;;;7.70;84.60;;;;;;5010977;28;20033;-65
2021/11/06 11:22:05;;;;;;;33.20;16.02;;;7.80;84.60;;;;;;5015348;28;20034;-67
2021/11/06 11:24:31;;;;;;;29.85;15.48;;;7.80;84.70;;;;;;5010271;28;20411;-67
2021/11/06 11:26:57;;;;;;;35.55;17.65;;;7.80;84.80;;;;;;5008000;28;20037;-68
2021/11/06 11:29:31;;;;;;;33.38;16.92;;;7.80;84.90;;;;;;5014743;28;20694;-67
2021/11/06 11:31:57;;;;;;;33.60;16.58;;;7.80;84.80;;;;;;5011825;28;20038;-67
2021/11/06 11:34:23;;;;;;;33.67;16.10;;;7.80;84.70;;;;;;5009601;28;20182;-67
2021/11/06 11:36:50;;;;;;;33.08;17.30;;;7.80;84.60;;;;;;5015313;28;20041;-68
2021/11/06 11:39:18;;;;;;;40.50;18.42;;;7.90;84.60;;;;;;5011763;28;20061;-67
2021/11/06 11:42:06;;;;;;;34.38;16.88;;;7.90;84.60;;;;;;5010079;28;20038;-66
2021/11/06 11:44:45;;;;;;;32.28;17.25;;;7.90;84.80;;;;;;5007475;28;20585;-66
2021/11/06 11:47:13;;;;;;;34.42;17.58;;;7.90;84.70;;;;;;5007712;28;20256;-67
2021/11/06 11:49:44;;;;;;;32.80;16.38;;;7.90;84.60;;;;;;5027301;28;20404;-67
2021/11/06 11:52:34;;;;;;;34.92;17.38;;;8.00;84.70;;;;;;5011596;28;20061;-68
2021/11/06 11:55:17;;;;;;;33.25;17.70;;;8.00;84.60;;;;;;5004485;28;20041;-67
2021/11/06 11:57:51;;;;;;;30.25;15.43;;;8.00;84.30;;;;;;5008249;28;20066;-67
2021/11/06 12:00:17;;;;;;;33.53;17.00;;;8.00;84.30;;;;;;5016137;28;20571;-67
2021/11/06 12:02:53;;;;;;;31.42;16.85;;;8.10;84.50;;;;;;5013955;28;20046;-67
2021/11/06 12:05:21;;;;;;;29.50;15.50;;;8.10;84.50;;;;;;5018960;28;20025;-67
2021/11/06 12:08:08;;;;;;;30.92;16.52;;;8.10;84.50;;;;;;5019107;28;20442;-68
2021/11/06 12:10:35;;;;;;;31.55;16.50;;;8.20;84.50;;;;;;5014489;28;20064;-67
2021/11/06 12:13:03;;;;;;;31.25;16.20;;;8.20;84.10;;;;;;5009826;28;20185;-67
2021/11/06 12:16:00;;;;;;;33.00;18.17;;;8.20;84.10;;;;;;5014388;28;20045;-68
2021/11/06 12:18:35;;;;;;;31.15;17.55;;;8.20;83.90;;;;;;5016049;28;20027;-68
2021/11/06 12:21:42;;;;;;;34.05;18.17;;;8.20;84.00;;;;;;5018004;28;20030;-68
2021/11/06 12:24:10;;;;;;;35.10;17.67;;;8.30;83.90;;;;;;5013476;28;20509;-67
2021/11/06 12:26:49;;;;;;;29.25;16.27;;;8.30;84.00;;;;;;5005764;28;20488;-67
2021/11/06 12:29:17;;;;;;;27.38;15.90;;;8.30;84.00;;;;;;5015596;28;20026;-67
2021/11/06 12:31:51;;;;;;;26.65;15.70;;;8.30;84.00;;;;;;5014121;28;20508;-67
2021/11/06 12:34:40;;;;;;;24.58;12.70;;;8.40;83.80;;;;;;5016935;28;20037;-67
2021/11/06 12:37:06;;;;;;;30.80;16.27;;;8.40;84.50;;;;;;5011567;28;21584;-68
2021/11/06 12:39:47;;;;;;;29.20;16.45;;;8.40;83.80;;;;;;5016641;28;20041;-67